Allentown, New Jersey
Current Conditions -  °F | °C
As of 7:58 AM on Friday 31 Oct 2014 (Local Time) from KWRI Reporting Station
Broken Clouds Broken Clouds  
Wind Chill: 30°   Ceiling: 4900
Heat Index: 35°   Visibility: 10mi
Dew Point: 32°   Wind: 6mph
Humidity: 86%   Direction: 340°NNW
Pressure: 29.99"   Gusts: NA
Location:  40.18°N, 74.58°W
Report Text: KWRI 311158Z AUTO 34005KT 10SM BKN049 02/00 A2999 RMK AO2 SLP160 T00191002 10038 20019 50002
Loading
Personal Weather Stations






























Interactive Weather Map
Tropical Storm Tracking
New forecast layout! Learn more

10-Day Weather Forecast

Advertisements
Track Severe Weather on mobile